createdAt,value
2019-03-04T00:01:19.949Z,5.13
2019-03-04T00:03:50.734Z,5.50
2019-03-04T00:06:21.345Z,7.30
2019-03-04T00:08:51.753Z,6.87
2019-03-04T00:11:24.067Z,6.50
2019-03-04T00:13:54.715Z,4.43
2019-03-04T00:16:25.074Z,6.57
2019-03-04T00:18:57.715Z,6.13
2019-03-04T00:21:28.129Z,6.20
2019-03-04T00:23:58.717Z,6.10
2019-03-04T00:26:29.323Z,5.03
2019-03-04T00:28:59.797Z,7.70
2019-03-04T00:31:30.787Z,5.93
2019-03-04T00:34:01.409Z,7.47
2019-03-04T00:36:32.150Z,6.17
2019-03-04T00:39:03.619Z,5.03
2019-03-04T00:41:34.535Z,6.50
2019-03-04T00:44:05.213Z,4.57
2019-03-04T00:46:35.670Z,6.50
2019-03-04T00:49:06.157Z,5.90
2019-03-04T00:51:36.717Z,7.30
2019-03-04T00:54:07.293Z,5.93
2019-03-04T00:56:37.825Z,3.17
2019-03-04T00:59:10.921Z,6.67
2019-03-04T01:01:41.740Z,5.93
2019-03-04T01:04:12.076Z,3.83
2019-03-04T01:06:43.175Z,7.20
2019-03-04T01:09:17.509Z,8.90
2019-03-04T01:11:47.970Z,5.77
2019-03-04T01:14:19.355Z,6.07
2019-03-04T01:16:49.608Z,4.27
2019-03-04T01:19:20.411Z,6.00
2019-03-04T01:21:50.801Z,5.70
2019-03-04T01:24:21.337Z,4.53
2019-03-04T01:26:51.619Z,4.07
2019-03-04T01:29:21.919Z,5.20
2019-03-04T01:31:52.303Z,5.83
2019-03-04T01:34:22.823Z,4.10
2019-03-04T01:36:53.105Z,4.97
2019-03-04T01:39:24.102Z,4.43
2019-03-04T01:41:54.413Z,7.27
2019-03-04T01:44:24.784Z,5.03
2019-03-04T01:46:55.821Z,5.33
2019-03-04T01:49:28.772Z,6.00
2019-03-04T01:51:59.021Z,4.33
2019-03-04T01:54:29.181Z,6.20
2019-03-04T01:56:59.522Z,4.10
2019-03-04T01:59:29.915Z,3.73
2019-03-04T02:02:00.285Z,4.07
2019-03-04T02:04:30.930Z,5.37
2019-03-04T02:07:01.499Z,5.70
2019-03-04T02:09:32.037Z,2.93
2019-03-04T02:12:05.749Z,6.40
2019-03-04T02:14:36.107Z,5.27
2019-03-04T02:17:06.675Z,6.03
2019-03-04T02:19:37.449Z,5.23
2019-03-04T02:22:07.983Z,5.90
2019-03-04T02:24:38.491Z,4.73
2019-03-04T02:27:08.861Z,4.27
2019-03-04T02:29:39.237Z,5.80
2019-03-04T02:32:09.899Z,4.57
2019-03-04T02:34:40.293Z,5.90
2019-03-04T02:37:10.714Z,4.83
2019-03-04T02:39:41.054Z,4.63
2019-03-04T02:42:11.711Z,4.07
2019-03-04T02:44:42.508Z,3.67
2019-03-04T02:47:13.099Z,5.43
2019-03-04T02:49:43.642Z,4.00
2019-03-04T02:52:14.018Z,6.43
2019-03-04T02:54:46.490Z,4.23
2019-03-04T02:57:17.023Z,4.30
2019-03-04T02:59:47.707Z,4.17
2019-03-04T03:02:18.180Z,5.87
2019-03-04T03:04:49.227Z,4.80
2019-03-04T03:07:20.153Z,6.10
2019-03-04T03:09:50.676Z,5.60
2019-03-04T03:12:22.967Z,5.00
2019-03-04T03:14:53.310Z,6.93
2019-03-04T03:17:24.022Z,6.40
2019-03-04T03:19:54.109Z,4.67
2019-03-04T03:22:24.551Z,7.07
2019-03-04T03:24:54.994Z,5.87
2019-03-04T03:27:25.463Z,5.47
2019-03-04T03:29:55.827Z,3.53
2019-03-04T03:32:26.362Z,5.97
2019-03-04T03:34:58.431Z,5.50
2019-03-04T03:37:28.865Z,5.77
2019-03-04T03:39:59.428Z,6.63
2019-03-04T03:42:34.004Z,8.17
2019-03-04T03:45:05.797Z,5.97
2019-03-04T03:47:36.804Z,5.30
2019-03-04T03:50:08.558Z,3.83
2019-03-04T03:52:39.071Z,5.40
2019-03-04T03:55:10.273Z,7.77
2019-03-04T03:57:41.546Z,5.43
2019-03-04T04:00:15.449Z,5.53
2019-03-04T04:02:46.133Z,7.57
2019-03-04T04:05:16.570Z,5.63
2019-03-04T04:07:46.905Z,7.50
2019-03-04T04:10:17.137Z,4.87
2019-03-04T04:12:47.785Z,4.43
2019-03-04T04:15:19.816Z,7.00
2019-03-04T04:17:50.480Z,5.63
2019-03-04T04:20:22.599Z,3.37
2019-03-04T04:22:54.762Z,11.17
2019-03-04T04:25:25.461Z,4.97
2019-03-04T04:27:56.023Z,5.00
2019-03-04T04:30:27.364Z,3.80
2019-03-04T04:32:57.803Z,4.37
2019-03-04T04:35:28.130Z,5.57
2019-03-04T04:37:58.647Z,4.17
2019-03-04T04:40:29.242Z,4.20
2019-03-04T04:42:59.574Z,3.93
2019-03-04T04:45:30.613Z,3.20
2019-03-04T04:48:01.094Z,7.20
2019-03-04T04:50:31.880Z,5.60
2019-03-04T04:53:08.979Z,6.53
2019-03-04T04:55:34.332Z,2.90
2019-03-04T04:58:04.800Z,5.60
2019-03-04T05:00:35.670Z,5.80
2019-03-04T05:03:06.267Z,5.13
2019-03-04T05:05:36.734Z,4.27
2019-03-04T05:08:07.241Z,3.60
2019-03-04T05:10:37.534Z,3.17
2019-03-04T05:13:10.739Z,2.70
2019-03-04T05:15:41.220Z,4.27
2019-03-04T05:18:11.708Z,4.00
2019-03-04T05:20:42.466Z,2.53
2019-03-04T05:23:12.738Z,3.07
2019-03-04T05:25:44.242Z,3.67
2019-03-04T05:28:14.706Z,3.37
2019-03-04T05:30:47.349Z,2.10
2019-03-04T05:33:19.798Z,3.47
2019-03-04T05:35:50.143Z,3.67
2019-03-04T05:38:20.368Z,3.27
2019-03-04T05:40:50.892Z,3.20
2019-03-04T05:43:21.352Z,3.27
2019-03-04T05:45:51.756Z,1.50
2019-03-04T05:48:21.796Z,2.83
2019-03-04T05:50:51.959Z,2.67
2019-03-04T05:53:22.212Z,3.30
2019-03-04T05:55:52.535Z,1.47
2019-03-04T05:58:24.463Z,2.10
2019-03-04T06:01:20.891Z,1.70
2019-03-04T06:03:53.756Z,3.17
2019-03-04T06:06:43.916Z,3.73
2019-03-04T06:09:14.379Z,4.03
2019-03-04T06:11:45.552Z,1.40
2019-03-04T06:14:16.484Z,4.40
2019-03-04T06:16:47.698Z,2.40
2019-03-04T06:19:18.836Z,3.03
2019-03-04T06:21:49.354Z,2.43
2019-03-04T06:24:19.715Z,4.20
2019-03-04T06:26:50.302Z,1.60
2019-03-04T06:29:20.844Z,2.70
2019-03-04T06:31:51.632Z,3.87
2019-03-04T06:34:22.518Z,1.60
2019-03-04T06:36:53.206Z,3.33
2019-03-04T06:39:27.782Z,1.87
2019-03-04T06:41:58.743Z,3.47
2019-03-04T06:44:29.582Z,2.57
2019-03-04T06:47:11.839Z,3.30
2019-03-04T06:50:03.840Z,2.63
2019-03-04T06:52:43.101Z,1.73
2019-03-04T06:55:37.323Z,3.17
2019-03-04T06:58:08.090Z,1.33
2019-03-04T07:00:58.578Z,2.30
2019-03-04T07:03:41.226Z,2.73
2019-03-04T07:06:22.818Z,2.10
2019-03-04T07:09:17.924Z,1.70
2019-03-04T07:11:49.947Z,2.23
2019-03-04T07:14:22.150Z,2.50
2019-03-04T07:16:53.490Z,1.70
2019-03-04T07:19:29.254Z,2.37
2019-03-04T07:21:59.810Z,2.63
2019-03-04T07:24:30.980Z,5.23
2019-03-04T07:27:01.980Z,3.20
2019-03-04T07:29:33.081Z,3.87
2019-03-04T07:32:03.926Z,3.27
2019-03-04T07:34:34.676Z,2.23
2019-03-04T07:37:05.764Z,2.57
2019-03-04T07:39:36.286Z,1.30
2019-03-04T07:42:10.403Z,1.73
2019-03-04T07:44:41.483Z,2.00
2019-03-04T07:47:12.335Z,3.60
2019-03-04T07:49:45.988Z,1.90
2019-03-04T07:52:16.940Z,1.83
2019-03-04T07:54:49.596Z,3.60
2019-03-04T07:57:20.282Z,1.60
2019-03-04T07:59:51.056Z,3.03
2019-03-04T08:02:21.740Z,2.30
2019-03-04T08:04:53.395Z,2.77
2019-03-04T08:07:45.356Z,1.90
2019-03-04T08:10:57.773Z,1.70
2019-03-04T08:13:32.068Z,2.67
2019-03-04T08:16:02.504Z,3.00
2019-03-04T08:18:33.723Z,3.00
2019-03-04T08:21:04.849Z,2.90
2019-03-04T08:23:35.563Z,2.90
2019-03-04T08:26:07.501Z,8.17
2019-03-04T08:28:38.666Z,5.07
2019-03-04T08:31:10.189Z,2.97
2019-03-04T08:33:41.215Z,4.23
2019-03-04T08:36:12.183Z,3.60
2019-03-04T08:38:43.703Z,2.57
2019-03-04T08:41:15.203Z,6.57
2019-03-04T08:43:46.221Z,2.70
2019-03-04T08:46:17.219Z,1.47
2019-03-04T08:48:47.901Z,3.57
2019-03-04T08:51:18.941Z,2.87
2019-03-04T08:53:50.001Z,2.20
2019-03-04T08:56:21.201Z,1.23
2019-03-04T08:58:52.611Z,1.03
2019-03-04T09:01:23.871Z,3.43
2019-03-04T09:03:54.381Z,4.60
2019-03-04T09:06:25.383Z,3.00
2019-03-04T09:08:56.517Z,2.50
2019-03-04T09:11:27.347Z,1.93
2019-03-04T09:13:58.325Z,5.07
2019-03-04T09:16:31.050Z,2.10
2019-03-04T09:19:02.177Z,3.27
2019-03-04T09:21:36.311Z,2.90
2019-03-04T09:24:07.671Z,2.37
2019-03-04T09:26:38.831Z,3.20
2019-03-04T09:29:09.805Z,1.93
2019-03-04T09:31:40.407Z,1.30
2019-03-04T09:34:11.139Z,3.57
2019-03-04T09:36:42.338Z,3.23
2019-03-04T09:39:16.428Z,2.97
2019-03-04T09:41:47.298Z,2.50
2019-03-04T09:44:18.309Z,3.10
2019-03-04T09:46:49.326Z,3.30
2019-03-04T09:49:19.731Z,3.60
2019-03-04T09:51:50.839Z,2.30
2019-03-04T09:54:21.706Z,2.53
2019-03-04T09:56:52.843Z,1.97
2019-03-04T09:59:23.801Z,1.40
2019-03-04T10:02:22.169Z,2.83
2019-03-04T10:05:24.239Z,3.47
2019-03-04T10:08:19.730Z,3.93
2019-03-04T10:11:36.941Z,1.67
2019-03-04T10:14:34.946Z,5.20
2019-03-04T10:17:34.189Z,3.40
2019-03-04T10:20:45.489Z,1.50
2019-03-04T10:23:43.727Z,3.00
2019-03-04T10:26:36.954Z,3.07
2019-03-04T10:30:00.830Z,3.67
2019-03-04T10:33:03.024Z,5.07
2019-03-04T10:35:51.094Z,2.77
2019-03-04T10:38:31.689Z,1.70
2019-03-04T10:41:36.026Z,0.90
2019-03-04T10:45:02.680Z,1.70
2019-03-04T10:47:33.671Z,4.63
2019-03-04T10:50:05.216Z,4.20
2019-03-04T10:52:36.349Z,3.50
2019-03-04T10:55:08.116Z,2.17
2019-03-04T10:57:39.203Z,2.50
2019-03-04T11:00:18.238Z,3.27
2019-03-04T11:02:51.195Z,3.00
2019-03-04T11:05:22.238Z,2.03
2019-03-04T11:07:53.667Z,2.63
2019-03-04T11:10:24.878Z,1.20
2019-03-04T11:12:56.569Z,2.20
2019-03-04T11:15:27.228Z,4.60
2019-03-04T11:17:58.728Z,6.00
2019-03-04T11:20:31.167Z,6.03
2019-03-04T11:23:07.858Z,3.67
2019-03-04T11:25:39.533Z,4.03
2019-03-04T11:28:11.885Z,7.40
2019-03-04T11:30:42.940Z,4.63
2019-03-04T11:33:13.750Z,3.47
2019-03-04T11:35:44.980Z,6.33
2019-03-04T11:38:36.395Z,5.00
2019-03-04T11:41:08.487Z,5.83
2019-03-04T11:43:40.984Z,5.80
2019-03-04T11:46:12.288Z,3.17
2019-03-04T11:48:43.042Z,8.50
2019-03-04T11:51:13.545Z,5.50
2019-03-04T11:53:44.430Z,5.27
2019-03-04T11:56:15.400Z,4.47
2019-03-04T11:58:46.099Z,3.73
2019-03-04T12:01:34.489Z,6.67
2019-03-04T12:04:05.315Z,2.93
2019-03-04T12:06:36.252Z,2.50
2019-03-04T12:09:11.128Z,3.77
2019-03-04T12:11:43.509Z,3.73
2019-03-04T12:14:14.245Z,3.97
2019-03-04T12:16:45.580Z,4.23
2019-03-04T12:19:16.436Z,1.73
2019-03-04T12:21:49.983Z,3.43
2019-03-04T12:24:21.016Z,4.63
2019-03-04T12:26:52.231Z,2.73
2019-03-04T12:29:22.823Z,4.30
2019-03-04T12:32:12.105Z,2.47
2019-03-04T12:34:42.952Z,2.83
2019-03-04T12:37:13.592Z,4.07
2019-03-04T12:39:45.566Z,5.07
2019-03-04T12:42:17.840Z,4.30
2019-03-04T12:44:48.598Z,1.60
2019-03-04T12:47:19.384Z,2.50
2019-03-04T12:49:50.468Z,3.13
2019-03-04T12:52:23.201Z,2.63
2019-03-04T12:54:53.726Z,4.67
2019-03-04T12:57:24.674Z,2.57
2019-03-04T12:59:55.560Z,4.20
2019-03-04T13:02:26.230Z,7.63
2019-03-04T13:04:57.096Z,2.93
2019-03-04T13:07:27.789Z,3.67
2019-03-04T13:09:58.440Z,4.63
2019-03-04T13:12:29.430Z,1.27
2019-03-04T13:15:00.307Z,3.30
2019-03-04T13:17:31.642Z,3.50
2019-03-04T13:20:02.194Z,2.43
2019-03-04T13:22:32.834Z,1.77
2019-03-04T13:25:03.474Z,1.13
2019-03-04T13:27:34.324Z,0.63
2019-03-04T13:30:06.153Z,1.03
2019-03-04T13:32:37.276Z,0.80
2019-03-04T13:35:09.703Z,2.93
2019-03-04T13:37:40.285Z,0.60
2019-03-04T13:40:11.936Z,1.10
2019-03-04T13:42:42.942Z,1.63
2019-03-04T13:45:15.526Z,0.80
2019-03-04T13:47:46.554Z,1.30
2019-03-04T13:50:21.256Z,1.77
2019-03-04T13:52:51.881Z,1.47
2019-03-04T13:55:22.383Z,1.00
2019-03-04T13:57:53.881Z,1.53
2019-03-04T14:00:24.420Z,1.67
2019-03-04T14:02:58.420Z,1.43
2019-03-04T14:05:29.139Z,3.00
2019-03-04T14:08:00.318Z,1.33
2019-03-04T14:10:33.458Z,1.30
2019-03-04T14:13:04.044Z,2.67
2019-03-04T14:15:36.756Z,3.07
2019-03-04T14:18:08.278Z,1.90
2019-03-04T14:20:39.658Z,1.67
2019-03-04T14:23:10.693Z,1.63
2019-03-04T14:25:44.119Z,1.50
2019-03-04T14:28:14.732Z,2.00
2019-03-04T14:30:45.649Z,2.20
2019-03-04T14:33:16.248Z,2.20
2019-03-04T14:35:47.339Z,3.50
2019-03-04T14:38:18.695Z,1.50
2019-03-04T14:40:49.213Z,5.17
2019-03-04T14:43:20.159Z,3.27
2019-03-04T14:45:51.214Z,5.07
2019-03-04T14:48:22.249Z,4.27
2019-03-04T14:50:53.731Z,2.80
2019-03-04T14:53:25.025Z,2.33
2019-03-04T14:55:56.339Z,3.00
2019-03-04T14:58:29.321Z,2.03
2019-03-04T15:01:00.789Z,3.17
2019-03-04T15:03:32.097Z,3.80
2019-03-04T15:06:06.869Z,3.07
2019-03-04T15:08:35.434Z,1.80
2019-03-04T15:11:06.611Z,2.60
2019-03-04T15:13:37.457Z,3.30
2019-03-04T15:16:11.955Z,2.03
2019-03-04T15:18:43.493Z,3.90
2019-03-04T15:21:14.435Z,4.07
2019-03-04T15:23:46.465Z,3.37
2019-03-04T15:26:17.270Z,2.47
2019-03-04T15:28:48.960Z,2.93
2019-03-04T15:31:19.673Z,3.17
2019-03-04T15:33:50.557Z,6.30
2019-03-04T15:36:21.360Z,5.47
2019-03-04T15:38:53.617Z,3.33
2019-03-04T15:41:24.765Z,3.97
2019-03-04T15:43:55.964Z,4.47
2019-03-04T15:46:27.422Z,9.07
2019-03-04T15:48:58.262Z,3.53
2019-03-04T15:51:29.298Z,4.43
2019-03-04T15:54:00.103Z,3.50
2019-03-04T15:56:31.272Z,3.63
2019-03-04T15:59:02.187Z,4.63
2019-03-04T16:01:33.676Z,4.23
2019-03-04T16:04:08.577Z,4.70
2019-03-04T16:06:38.247Z,3.87
2019-03-04T16:09:16.042Z,3.00
2019-03-04T16:11:46.864Z,6.60
2019-03-04T16:14:18.757Z,5.97
2019-03-04T16:16:49.704Z,3.50
2019-03-04T16:19:20.583Z,4.40
2019-03-04T16:21:51.490Z,3.57
2019-03-04T16:24:22.099Z,4.40
2019-03-04T16:26:53.183Z,6.87
2019-03-04T16:29:23.702Z,4.80
2019-03-04T16:31:54.445Z,4.80
2019-03-04T16:34:27.854Z,5.60
2019-03-04T16:36:58.820Z,4.10
2019-03-04T16:39:29.652Z,5.77
2019-03-04T16:42:00.522Z,3.87
2019-03-04T16:44:31.204Z,6.20
2019-03-04T16:47:01.448Z,5.37
2019-03-04T16:49:31.815Z,6.37
2019-03-04T16:52:03.478Z,3.93
2019-03-04T16:54:35.924Z,4.67
2019-03-04T16:57:14.036Z,4.63
2019-03-04T16:59:44.259Z,2.67
2019-03-04T17:02:15.190Z,6.03
2019-03-04T17:04:46.671Z,7.73
2019-03-04T17:07:16.875Z,5.70
2019-03-04T17:09:47.323Z,6.40
2019-03-04T17:12:18.594Z,5.37
2019-03-04T17:14:48.870Z,5.23
2019-03-04T17:17:19.370Z,7.27
2019-03-04T17:19:49.437Z,7.10
2019-03-04T17:22:20.419Z,7.13
2019-03-04T17:24:50.731Z,7.60
2019-03-04T17:27:23.586Z,4.47
2019-03-04T17:29:53.805Z,6.80
2019-03-04T17:32:23.933Z,9.87
2019-03-04T17:34:54.146Z,10.17
2019-03-04T17:37:24.586Z,9.03
2019-03-04T17:39:55.949Z,8.20
2019-03-04T17:42:26.246Z,5.97
2019-03-04T17:44:56.636Z,5.57
2019-03-04T17:47:27.310Z,7.13
2019-03-04T17:49:57.790Z,9.17
2019-03-04T17:52:31.206Z,5.33
2019-03-04T17:55:02.033Z,8.23
2019-03-04T17:57:32.539Z,6.20
2019-03-04T18:00:03.454Z,7.60
2019-03-04T18:02:34.292Z,9.37
2019-03-04T18:05:05.780Z,3.87
2019-03-04T18:07:37.142Z,8.33
2019-03-04T18:10:10.774Z,7.03
2019-03-04T18:12:41.251Z,9.47
2019-03-04T18:15:15.260Z,7.73
2019-03-04T18:17:45.678Z,7.80
2019-03-04T18:20:16.204Z,4.67
2019-03-04T18:22:47.006Z,8.03
2019-03-04T18:25:21.800Z,4.90
2019-03-04T18:27:55.928Z,8.03
2019-03-04T18:30:47.774Z,5.97
2019-03-04T18:34:02.693Z,5.73
2019-03-04T18:37:07.532Z,6.37
2019-03-04T18:40:28.340Z,8.23
2019-03-04T18:43:24.247Z,6.47
2019-03-04T18:46:17.114Z,11.43
2019-03-04T18:48:57.620Z,5.43
2019-03-04T18:51:29.794Z,6.37
2019-03-04T18:54:06.632Z,8.33
2019-03-04T18:56:37.160Z,7.40
2019-03-04T18:59:08.913Z,6.80
2019-03-04T19:01:39.364Z,6.30
2019-03-04T19:04:10.074Z,3.40
2019-03-04T19:06:41.948Z,8.23
2019-03-04T19:09:12.980Z,8.37
2019-03-04T19:11:47.339Z,8.33
2019-03-04T19:14:17.992Z,8.70
2019-03-04T19:16:48.846Z,6.57
2019-03-04T19:19:19.443Z,10.10
2019-03-04T19:21:50.202Z,6.07
2019-03-04T19:24:20.742Z,8.70
2019-03-04T19:26:51.830Z,9.43
2019-03-04T19:29:27.198Z,11.03
2019-03-04T19:31:58.232Z,11.03
2019-03-04T19:34:29.712Z,9.03
2019-03-04T19:37:00.522Z,9.03
2019-03-04T19:39:32.516Z,4.73
2019-03-04T19:42:09.069Z,8.63
2019-03-04T19:44:39.624Z,9.03
2019-03-04T19:47:18.838Z,7.93
2019-03-04T19:49:49.479Z,12.70
2019-03-04T19:52:20.218Z,7.33
2019-03-04T19:54:50.655Z,6.43
2019-03-04T19:57:21.484Z,11.43
2019-03-04T19:59:52.245Z,9.97
2019-03-04T20:02:22.914Z,7.70
2019-03-04T20:04:56.338Z,5.53
2019-03-04T20:07:26.936Z,8.53
2019-03-04T20:09:57.399Z,5.23
2019-03-04T20:12:28.170Z,7.97
2019-03-04T20:15:00.956Z,8.67
2019-03-04T20:17:34.039Z,9.10
2019-03-04T20:20:06.889Z,8.60
2019-03-04T20:22:37.303Z,7.27
2019-03-04T20:25:12.349Z,4.70
2019-03-04T20:27:42.229Z,7.60
2019-03-04T20:30:13.492Z,8.97
2019-03-04T20:32:44.540Z,6.07
2019-03-04T20:35:15.361Z,7.33
2019-03-04T20:37:48.470Z,10.13
2019-03-04T20:40:21.484Z,7.57
2019-03-04T20:42:53.270Z,7.43
2019-03-04T20:45:24.810Z,5.30
2019-03-04T20:47:55.370Z,7.93
2019-03-04T20:50:26.045Z,9.23
2019-03-04T20:52:56.547Z,7.60
2019-03-04T20:55:30.038Z,6.77
2019-03-04T20:58:00.680Z,4.87
2019-03-04T21:00:35.347Z,6.63
2019-03-04T21:03:08.693Z,6.90
2019-03-04T21:05:39.054Z,5.13
2019-03-04T21:08:10.283Z,8.27
2019-03-04T21:10:40.752Z,8.70
2019-03-04T21:13:34.892Z,5.10
2019-03-04T21:15:56.284Z,4.77
2019-03-04T21:18:26.952Z,7.93
2019-03-04T21:20:59.690Z,8.17
2019-03-04T21:23:32.962Z,6.77
2019-03-04T21:26:15.970Z,9.83
2019-03-04T21:28:58.224Z,5.17
2019-03-04T21:32:08.476Z,3.80
2019-03-04T21:35:28.357Z,9.57
2019-03-04T21:37:59.104Z,5.87
2019-03-04T21:41:03.005Z,6.17
2019-03-04T21:43:48.747Z,6.73
2019-03-04T21:46:58.124Z,3.80
2019-03-04T21:49:31.666Z,5.40
2019-03-04T21:52:20.134Z,10.57
2019-03-04T21:54:46.897Z,4.33
2019-03-04T21:57:21.628Z,5.67
2019-03-04T21:59:52.146Z,6.77
2019-03-04T22:02:35.572Z,6.70
2019-03-04T22:05:12.879Z,7.20
2019-03-04T22:07:43.781Z,7.60
2019-03-04T22:10:15.484Z,6.07
2019-03-04T22:12:46.722Z,6.10
2019-03-04T22:15:18.174Z,8.20
2019-03-04T22:17:49.304Z,8.40
2019-03-04T22:20:20.432Z,8.17
2019-03-04T22:22:53.771Z,4.83
2019-03-04T22:25:24.265Z,6.27
2019-03-04T22:27:55.144Z,5.17
2019-03-04T22:30:25.674Z,8.10
2019-03-04T22:32:56.201Z,6.83
2019-03-04T22:35:26.603Z,6.33
2019-03-04T22:37:57.397Z,7.20
2019-03-04T22:40:28.172Z,8.17
2019-03-04T22:42:58.920Z,9.50
2019-03-04T22:45:29.525Z,5.97
2019-03-04T22:47:59.937Z,6.47
2019-03-04T22:50:32.922Z,9.93
2019-03-04T22:53:03.327Z,7.13
2019-03-04T22:55:35.966Z,10.00
2019-03-04T22:58:06.786Z,6.63
2019-03-04T23:01:44.040Z,7.40
2019-03-04T23:04:26.064Z,4.13
2019-03-04T23:07:02.839Z,5.77
2019-03-04T23:09:37.701Z,7.60
2019-03-04T23:12:16.034Z,7.63
2019-03-04T23:14:47.133Z,6.07
2019-03-04T23:17:18.371Z,5.53
2019-03-04T23:19:49.675Z,8.00
2019-03-04T23:22:20.471Z,8.90
2019-03-04T23:24:51.115Z,8.07
2019-03-04T23:27:21.787Z,6.83
2019-03-04T23:29:52.274Z,7.50
2019-03-04T23:32:22.737Z,5.27
2019-03-04T23:34:53.293Z,5.73
2019-03-04T23:37:24.841Z,3.50
2019-03-04T23:39:55.307Z,5.73
2019-03-04T23:42:25.824Z,7.67
2019-03-04T23:44:56.365Z,7.07
2019-03-04T23:47:26.845Z,8.73
2019-03-04T23:50:18.218Z,4.33
2019-03-04T23:52:49.136Z,7.53
2019-03-04T23:55:20.375Z,8.10
2019-03-04T23:57:51.038Z,6.57
